createdAt,value
2023-01-29T00:00:22.040Z,78433.00
2023-01-29T00:02:48.711Z,78436.84
2023-01-29T00:05:27.083Z,78436.84
2023-01-29T00:07:55.330Z,78436.84
2023-01-29T00:10:22.262Z,78448.41
2023-01-29T00:12:48.843Z,78444.56
2023-01-29T00:15:15.432Z,78444.56
2023-01-29T00:17:41.984Z,78442.63
2023-01-29T00:20:09.413Z,78452.28
2023-01-29T00:22:36.709Z,78456.13
2023-01-29T00:25:03.323Z,78458.06
2023-01-29T00:27:29.876Z,78469.63
2023-01-29T00:30:19.319Z,78475.41
2023-01-29T00:32:46.222Z,78475.41
2023-01-29T00:35:12.844Z,78471.56
2023-01-29T00:37:39.485Z,78479.25
2023-01-29T00:40:06.480Z,78479.25
2023-01-29T00:42:51.794Z,78483.13
2023-01-29T00:45:18.445Z,78481.19
2023-01-29T00:47:45.566Z,78486.97
2023-01-29T00:50:12.988Z,78498.53
2023-01-29T00:52:42.958Z,78502.41
2023-01-29T00:55:10.552Z,78498.53
2023-01-29T00:57:38.736Z,78502.41
2023-01-29T01:00:10.669Z,78502.41
2023-01-29T01:02:55.983Z,78510.13
2023-01-29T01:05:22.782Z,78510.13
2023-01-29T01:07:52.406Z,78521.69
2023-01-29T01:10:22.288Z,78521.69
2023-01-29T01:12:51.647Z,78525.53
2023-01-29T01:15:18.828Z,78529.41
2023-01-29T01:17:45.682Z,78527.47
2023-01-29T01:20:13.131Z,78533.25
2023-01-29T01:22:40.379Z,78533.25
2023-01-29T01:25:07.418Z,78535.19
2023-01-29T01:27:34.809Z,78533.25
2023-01-29T01:30:01.568Z,78535.19
2023-01-29T01:32:28.695Z,78540.97
2023-01-29T01:34:55.298Z,78537.09
2023-01-29T01:37:22.489Z,78537.09
2023-01-29T01:39:50.611Z,78544.81
2023-01-29T01:42:17.247Z,78535.19
2023-01-29T01:45:01.315Z,78540.97
2023-01-29T01:47:43.210Z,78544.81
2023-01-29T01:50:18.785Z,78540.97
2023-01-29T01:52:50.256Z,78535.19
2023-01-29T01:55:21.648Z,78548.69
2023-01-29T01:57:52.889Z,78556.38
2023-01-29T02:00:22.065Z,78552.53
2023-01-29T02:03:07.730Z,78556.38
2023-01-29T02:05:55.160Z,78556.38
2023-01-29T02:08:54.553Z,78571.81
2023-01-29T02:11:21.149Z,78567.97
2023-01-29T02:13:53.478Z,78569.88
2023-01-29T02:16:25.299Z,78567.97
2023-01-29T02:18:52.409Z,78575.66
2023-01-29T02:21:25.001Z,78575.66
2023-01-29T02:24:32.830Z,78583.38
2023-01-29T02:27:05.811Z,78591.09
2023-01-29T02:29:47.835Z,78591.09
2023-01-29T02:32:34.821Z,78591.09
2023-01-29T02:35:32.022Z,78591.09
2023-01-29T02:38:06.453Z,78591.09
2023-01-29T02:40:47.074Z,78598.81
2023-01-29T02:43:32.467Z,78598.81
2023-01-29T02:46:17.784Z,78594.94
2023-01-29T02:49:12.559Z,78602.66
2023-01-29T02:51:49.729Z,78606.53
2023-01-29T02:54:37.785Z,78612.31
2023-01-29T02:57:14.850Z,78618.09
2023-01-29T02:59:48.919Z,78621.94
2023-01-29T03:02:20.829Z,78621.94
2023-01-29T03:04:54.729Z,78625.81
2023-01-29T03:07:42.377Z,78623.88
2023-01-29T03:10:21.713Z,78625.81
2023-01-29T03:12:55.665Z,78629.66
2023-01-29T03:15:29.694Z,78637.38
2023-01-29T03:18:17.714Z,78633.53
2023-01-29T03:20:54.366Z,78641.22
2023-01-29T03:23:38.149Z,78641.22
2023-01-29T03:26:27.388Z,78641.22
2023-01-29T03:29:13.360Z,78645.09
2023-01-29T03:31:59.960Z,78647.00
2023-01-29T03:34:37.010Z,78641.22
2023-01-29T03:37:09.252Z,78647.00
2023-01-29T03:39:37.011Z,78656.66
2023-01-29T03:42:23.799Z,78652.81
2023-01-29T03:45:08.505Z,78656.66
2023-01-29T03:48:00.469Z,78656.66
2023-01-29T03:50:41.867Z,78648.94
2023-01-29T03:53:28.097Z,78652.81
2023-01-29T03:56:02.415Z,78648.94
2023-01-29T03:58:53.391Z,78647.00
2023-01-29T04:01:33.403Z,78660.50
2023-01-29T04:04:12.208Z,78648.94
2023-01-29T04:06:43.146Z,78652.81
2023-01-29T04:09:22.113Z,78650.88
2023-01-29T04:12:07.263Z,78650.88
2023-01-29T04:14:34.114Z,78641.22
2023-01-29T04:17:08.892Z,78648.94
2023-01-29T04:19:45.541Z,78656.66
2023-01-29T04:22:30.421Z,78656.66
2023-01-29T04:25:02.494Z,78658.59
2023-01-29T04:27:55.416Z,78656.66
2023-01-29T04:30:28.056Z,78656.66
2023-01-29T04:33:16.601Z,78672.09
2023-01-29T04:35:55.412Z,78668.22
2023-01-29T04:38:52.203Z,78664.38
2023-01-29T04:41:24.735Z,78672.09
2023-01-29T04:44:23.378Z,78675.94
2023-01-29T04:46:54.517Z,78681.72
2023-01-29T04:50:03.833Z,78687.50
2023-01-29T04:52:41.509Z,78689.44
2023-01-29T04:55:13.706Z,78699.06
2023-01-29T04:57:57.248Z,78699.06
2023-01-29T05:00:35.516Z,78710.66
2023-01-29T05:03:02.895Z,78710.66
2023-01-29T05:05:30.899Z,78714.50
2023-01-29T05:07:59.110Z,78710.66
2023-01-29T05:10:26.673Z,78702.94
2023-01-29T05:12:59.889Z,78718.34
2023-01-29T05:15:33.674Z,78718.34
2023-01-29T05:18:03.055Z,78714.50
2023-01-29T05:20:33.875Z,78706.78
2023-01-29T05:23:00.674Z,78702.94
2023-01-29T05:25:31.025Z,78706.78
2023-01-29T05:28:26.824Z,78710.66
2023-01-29T05:30:56.508Z,78710.66
2023-01-29T05:33:27.312Z,78714.50
2023-01-29T05:35:55.270Z,78714.50
2023-01-29T05:38:22.724Z,78710.66
2023-01-29T05:40:49.497Z,78718.34
2023-01-29T05:43:21.482Z,78724.16
2023-01-29T05:45:59.360Z,78729.94
2023-01-29T05:48:28.894Z,78729.94
2023-01-29T05:51:03.724Z,78737.63
2023-01-29T05:53:31.019Z,78751.13
2023-01-29T05:56:01.835Z,78760.78
2023-01-29T05:58:30.909Z,78776.19
2023-01-29T06:00:57.922Z,78782.00
2023-01-29T06:03:25.039Z,78793.56
2023-01-29T06:05:51.577Z,78807.06
2023-01-29T06:08:18.174Z,78816.69
2023-01-29T06:10:44.723Z,78822.47
2023-01-29T06:13:11.392Z,78826.34
2023-01-29T06:15:41.215Z,78841.78
2023-01-29T06:18:08.348Z,78845.63
2023-01-29T06:20:34.937Z,78857.19
2023-01-29T06:23:01.588Z,78866.84
2023-01-29T06:25:28.219Z,78868.75
2023-01-29T06:27:55.174Z,78874.53
2023-01-29T06:30:22.620Z,78876.47
2023-01-29T06:32:49.153Z,78880.34
2023-01-29T06:35:15.790Z,78886.13
2023-01-29T06:37:42.547Z,78861.06
2023-01-29T06:40:09.953Z,78837.91
2023-01-29T06:42:36.533Z,78826.34
2023-01-29T06:45:03.364Z,78826.34
2023-01-29T06:47:29.948Z,78832.13
2023-01-29T06:49:56.546Z,78834.06
2023-01-29T06:52:23.107Z,78839.84
2023-01-29T06:54:49.711Z,78834.06
2023-01-29T06:57:16.255Z,78830.19
2023-01-29T06:59:42.874Z,78830.19
2023-01-29T07:02:09.585Z,78835.97
2023-01-29T07:04:37.736Z,78845.63
2023-01-29T07:07:04.390Z,78818.63
2023-01-29T07:09:31.296Z,78818.63
2023-01-29T07:11:57.883Z,78822.47
2023-01-29T07:14:24.413Z,78816.69
2023-01-29T07:16:51.130Z,78816.69
2023-01-29T07:19:17.680Z,78807.06
2023-01-29T07:21:44.311Z,78805.13
2023-01-29T07:24:10.905Z,78783.91
2023-01-29T07:26:37.523Z,78780.06
2023-01-29T07:29:05.166Z,78776.19
2023-01-29T07:31:31.868Z,78791.63
2023-01-29T07:33:58.469Z,78797.41
2023-01-29T07:36:25.193Z,78783.91
2023-01-29T07:38:51.856Z,78776.19
2023-01-29T07:41:18.898Z,78756.91
2023-01-29T07:43:46.641Z,78741.50
2023-01-29T07:46:13.321Z,78755.00
2023-01-29T07:48:39.927Z,78755.00
2023-01-29T07:51:06.825Z,78729.94
2023-01-29T07:53:33.485Z,78718.34
2023-01-29T07:56:00.132Z,78714.50
2023-01-29T07:58:26.773Z,78714.50
2023-01-29T08:00:53.370Z,78722.22
2023-01-29T08:03:20.783Z,78729.94
2023-01-29T08:05:48.366Z,78697.16
2023-01-29T08:08:15.291Z,78704.84
2023-01-29T08:10:42.257Z,78724.16
2023-01-29T08:13:09.171Z,78712.56
2023-01-29T08:15:38.018Z,78699.06
2023-01-29T08:18:06.507Z,78724.16
2023-01-29T08:20:33.438Z,78714.50
2023-01-29T08:23:05.135Z,78668.22
2023-01-29T08:25:32.823Z,78645.09
2023-01-29T08:28:00.792Z,78637.38
2023-01-29T08:30:30.012Z,78650.88
2023-01-29T08:32:56.617Z,78591.09
2023-01-29T08:35:24.030Z,78608.44
2023-01-29T08:37:59.409Z,78639.31
2023-01-29T08:40:27.685Z,78675.94
2023-01-29T08:43:02.973Z,78648.94
2023-01-29T08:45:33.393Z,78687.50
2023-01-29T08:48:00.102Z,78687.50
2023-01-29T08:50:26.831Z,78710.66
2023-01-29T08:52:58.723Z,78687.50
2023-01-29T08:55:25.998Z,78699.06
2023-01-29T08:57:52.694Z,78691.38
2023-01-29T09:00:19.646Z,78664.38
2023-01-29T09:02:46.361Z,78668.22
2023-01-29T09:05:13.018Z,78693.28
2023-01-29T09:07:39.606Z,78704.84
2023-01-29T09:10:06.499Z,78695.22
2023-01-29T09:12:33.030Z,78672.09
2023-01-29T09:14:59.577Z,78672.09
2023-01-29T09:17:26.208Z,78670.16
2023-01-29T09:19:53.110Z,78629.66
2023-01-29T09:22:20.514Z,78650.88
2023-01-29T09:24:47.246Z,78645.09
2023-01-29T09:27:13.869Z,78633.53
2023-01-29T09:29:40.560Z,78647.00
2023-01-29T09:32:07.263Z,78614.22
2023-01-29T09:34:34.313Z,78598.81
2023-01-29T09:37:00.882Z,78637.38
2023-01-29T09:39:27.651Z,78637.38
2023-01-29T09:42:12.590Z,78621.94
2023-01-29T09:45:13.256Z,78602.66
2023-01-29T09:47:40.137Z,78589.16
2023-01-29T09:50:15.748Z,78616.16
2023-01-29T09:52:56.246Z,78618.09
2023-01-29T09:55:27.109Z,78606.53
2023-01-29T09:57:57.838Z,78567.97
2023-01-29T10:00:58.834Z,78519.75
2023-01-29T10:03:34.715Z,78571.81
2023-01-29T10:06:20.590Z,78527.47
2023-01-29T10:09:19.543Z,78531.31
2023-01-29T10:12:08.641Z,78552.53
2023-01-29T10:15:12.974Z,78521.69
2023-01-29T10:17:58.375Z,78510.13
2023-01-29T10:20:39.508Z,78540.97
2023-01-29T10:23:14.912Z,78540.97
2023-01-29T10:25:42.931Z,78567.97
2023-01-29T10:28:20.518Z,78567.97
2023-01-29T10:30:54.944Z,78567.97
2023-01-29T10:33:48.764Z,78567.97
2023-01-29T10:36:22.788Z,78575.66
2023-01-29T10:38:51.083Z,78587.25
2023-01-29T10:41:20.335Z,78579.53
2023-01-29T10:43:49.651Z,78552.53
2023-01-29T10:46:47.509Z,78571.81
2023-01-29T10:49:39.246Z,78577.59
2023-01-29T10:52:16.136Z,78539.03
2023-01-29T10:54:51.236Z,78540.97
2023-01-29T10:57:45.863Z,78552.53
2023-01-29T11:00:28.572Z,78537.09
2023-01-29T11:02:55.118Z,78510.13
2023-01-29T11:05:51.374Z,78531.31
2023-01-29T11:08:39.097Z,78529.41
2023-01-29T11:11:17.260Z,78513.97
2023-01-29T11:13:52.613Z,78517.81
2023-01-29T11:16:19.190Z,78558.31
2023-01-29T11:18:57.428Z,78529.41
2023-01-29T11:21:26.085Z,78496.63
2023-01-29T11:24:07.061Z,78475.41
2023-01-29T11:26:38.494Z,78502.41
2023-01-29T11:29:05.295Z,78477.34
2023-01-29T11:31:40.693Z,78467.69
2023-01-29T11:34:19.469Z,78510.13
2023-01-29T11:36:46.861Z,78504.34
2023-01-29T11:39:21.399Z,78512.03
2023-01-29T11:42:02.781Z,78510.13
2023-01-29T11:44:33.281Z,78512.03
2023-01-29T11:47:13.324Z,78490.84
2023-01-29T11:49:46.862Z,78471.56
2023-01-29T11:52:16.335Z,78431.06
2023-01-29T11:54:52.592Z,78456.13
2023-01-29T11:57:26.507Z,78456.13
2023-01-29T11:59:55.626Z,78409.84
2023-01-29T12:02:31.516Z,78394.44
2023-01-29T12:05:02.212Z,78380.94
2023-01-29T12:07:29.617Z,78382.88
2023-01-29T12:10:00.200Z,78357.78
2023-01-29T12:12:29.722Z,78352.00
2023-01-29T12:15:08.571Z,78359.72
2023-01-29T12:17:39.004Z,78344.31
2023-01-29T12:20:15.467Z,78340.44
2023-01-29T12:22:48.861Z,78379.00
2023-01-29T12:25:25.975Z,78394.44
2023-01-29T12:28:09.195Z,78382.88
2023-01-29T12:30:54.739Z,78371.28
2023-01-29T12:33:37.144Z,78352.00
2023-01-29T12:36:12.529Z,78367.44
2023-01-29T12:38:40.992Z,78369.38
2023-01-29T12:41:30.124Z,78379.00
2023-01-29T12:44:02.969Z,78380.94
2023-01-29T12:46:34.660Z,78380.94
2023-01-29T12:49:07.385Z,78371.28
2023-01-29T12:51:40.813Z,78352.00
2023-01-29T12:54:12.979Z,78348.16
2023-01-29T12:56:47.194Z,78340.44
2023-01-29T12:59:22.639Z,78344.31
2023-01-29T13:02:04.622Z,78344.31
2023-01-29T13:04:42.312Z,78375.16
2023-01-29T13:07:19.467Z,78352.00
2023-01-29T13:09:53.313Z,78315.38
2023-01-29T13:12:23.121Z,78328.88
2023-01-29T13:15:28.439Z,78340.44
2023-01-29T13:18:02.123Z,78317.31
2023-01-29T13:20:32.168Z,78301.88
2023-01-29T13:23:20.563Z,78303.81
2023-01-29T13:25:51.409Z,78315.38
2023-01-29T13:28:21.013Z,78298.03
2023-01-29T13:30:47.952Z,78317.31
2023-01-29T13:33:23.669Z,78336.59
2023-01-29T13:35:59.427Z,78325.03
2023-01-29T13:38:33.333Z,78299.97
2023-01-29T13:41:08.733Z,78294.19
2023-01-29T13:43:41.959Z,78309.59
2023-01-29T13:46:12.372Z,78309.59
2023-01-29T13:48:46.739Z,78307.66
2023-01-29T13:51:20.017Z,78340.44
2023-01-29T13:53:53.529Z,78326.94
2023-01-29T13:56:35.091Z,78332.72
2023-01-29T13:59:05.455Z,78336.59
2023-01-29T14:01:47.277Z,78332.72
2023-01-29T14:04:21.658Z,78328.88
2023-01-29T14:06:52.342Z,78332.72
2023-01-29T14:09:34.274Z,78332.72
2023-01-29T14:12:00.995Z,78342.38
2023-01-29T14:14:49.660Z,78352.00
2023-01-29T14:17:18.507Z,78367.44
2023-01-29T14:19:53.493Z,78371.28
2023-01-29T14:22:27.059Z,78379.00
2023-01-29T14:24:57.889Z,78377.06
2023-01-29T14:27:25.784Z,78379.00
2023-01-29T14:30:00.840Z,78386.72
2023-01-29T14:32:27.933Z,78398.28
2023-01-29T14:35:03.480Z,78413.72
2023-01-29T14:37:36.638Z,78407.94
2023-01-29T14:40:12.307Z,78409.84
2023-01-29T14:42:44.011Z,78413.72
2023-01-29T14:45:22.389Z,78433.00
2023-01-29T14:47:48.882Z,78429.13
2023-01-29T14:50:35.796Z,78444.56
2023-01-29T14:53:10.468Z,78442.63
2023-01-29T14:56:09.961Z,78450.34
2023-01-29T14:58:52.613Z,78459.97
2023-01-29T15:01:34.309Z,78475.41
2023-01-29T15:04:15.033Z,78469.63
2023-01-29T15:06:46.631Z,78473.47
2023-01-29T15:09:17.882Z,78483.13
2023-01-29T15:11:56.020Z,78481.19
2023-01-29T15:14:26.156Z,78488.91
2023-01-29T15:17:28.747Z,78494.69
2023-01-29T15:19:56.740Z,78496.63
2023-01-29T15:22:29.837Z,78494.69
2023-01-29T15:25:05.080Z,78492.75
2023-01-29T15:27:32.091Z,78506.25
2023-01-29T15:30:01.533Z,78490.84
2023-01-29T15:32:36.026Z,78498.53
2023-01-29T15:35:08.813Z,78502.41
2023-01-29T15:37:36.531Z,78498.53
2023-01-29T15:40:06.887Z,78506.25
2023-01-29T15:42:48.605Z,78506.25
2023-01-29T15:45:31.141Z,78513.97
2023-01-29T15:48:03.846Z,78517.81
2023-01-29T15:50:32.894Z,78521.69
2023-01-29T15:53:04.097Z,78529.41
2023-01-29T15:55:31.754Z,78537.09
2023-01-29T15:57:59.883Z,78537.09
2023-01-29T16:00:29.569Z,78552.53
2023-01-29T16:02:58.021Z,78567.97
2023-01-29T16:05:28.853Z,78573.75
2023-01-29T16:07:57.241Z,78579.53
2023-01-29T16:10:30.055Z,78585.31
2023-01-29T16:12:57.851Z,78583.38
2023-01-29T16:15:34.480Z,78583.38
2023-01-29T16:18:04.698Z,78591.09
2023-01-29T16:20:45.156Z,78593.03
2023-01-29T16:23:21.413Z,78594.94
2023-01-29T16:25:49.810Z,78606.53
2023-01-29T16:28:17.699Z,78620.03
2023-01-29T16:30:44.456Z,78623.88
2023-01-29T16:33:17.039Z,78633.53
2023-01-29T16:35:50.254Z,78635.44
2023-01-29T16:38:28.427Z,78637.38
2023-01-29T16:41:15.615Z,78641.22
2023-01-29T16:43:55.113Z,78645.09
2023-01-29T16:46:26.576Z,78648.94
2023-01-29T16:48:53.964Z,78660.50
2023-01-29T16:51:36.966Z,78664.38
2023-01-29T16:54:12.543Z,78660.50
2023-01-29T16:56:39.902Z,78672.09
2023-01-29T16:59:07.217Z,78668.22
2023-01-29T17:01:36.356Z,78672.09
2023-01-29T17:04:10.305Z,78672.09
2023-01-29T17:06:38.036Z,78672.09
2023-01-29T17:09:06.066Z,78675.94
2023-01-29T17:11:34.639Z,78664.38
2023-01-29T17:14:01.527Z,78679.78
2023-01-29T17:16:37.532Z,78679.78
2023-01-29T17:19:17.478Z,78687.50
2023-01-29T17:21:44.137Z,78693.28
2023-01-29T17:24:10.710Z,78699.06
2023-01-29T17:26:37.618Z,78695.22
2023-01-29T17:29:04.398Z,78702.94
2023-01-29T17:31:31.093Z,78716.44
2023-01-29T17:33:57.685Z,78718.34
2023-01-29T17:36:24.403Z,78720.28
2023-01-29T17:38:50.971Z,78726.06
2023-01-29T17:41:30.330Z,78731.84
2023-01-29T17:43:56.986Z,78741.50
2023-01-29T17:46:23.528Z,78741.50
2023-01-29T17:48:50.354Z,78747.28
2023-01-29T17:51:17.932Z,78731.84
2023-01-29T17:53:46.971Z,78733.78
2023-01-29T17:56:21.342Z,78728.00
2023-01-29T17:58:48.028Z,78710.66
2023-01-29T18:01:14.986Z,78708.72
2023-01-29T18:03:41.777Z,78708.72
2023-01-29T18:06:09.668Z,78702.94
2023-01-29T18:08:38.571Z,78704.84
2023-01-29T18:11:06.127Z,78699.06
2023-01-29T18:13:32.747Z,78699.06
2023-01-29T18:15:59.531Z,78695.22
2023-01-29T18:18:26.183Z,78693.28
2023-01-29T18:20:53.492Z,78693.28
2023-01-29T18:23:20.140Z,78689.44
2023-01-29T18:25:46.843Z,78687.50
2023-01-29T18:28:16.993Z,78693.28
2023-01-29T18:30:46.989Z,78687.50
2023-01-29T18:33:14.610Z,78693.28
2023-01-29T18:35:41.284Z,78697.16
2023-01-29T18:38:07.904Z,78697.16
2023-01-29T18:40:34.587Z,78695.22
2023-01-29T18:43:01.285Z,78702.94
2023-01-29T18:45:28.941Z,78706.78
2023-01-29T18:47:55.911Z,78718.34
2023-01-29T18:50:26.366Z,78731.84
2023-01-29T18:52:53.943Z,78745.34
2023-01-29T18:55:21.113Z,78751.13
2023-01-29T18:58:27.338Z,78758.84
2023-01-29T19:00:34.751Z,78772.34
2023-01-29T19:03:01.565Z,78776.19
2023-01-29T19:05:28.146Z,78774.28
2023-01-29T19:07:54.935Z,78783.91
2023-01-29T19:10:21.543Z,78780.06
2023-01-29T19:12:48.085Z,78787.78
2023-01-29T19:15:16.258Z,78799.34
2023-01-29T19:17:43.276Z,78799.34
2023-01-29T19:20:11.105Z,78799.34
2023-01-29T19:22:39.303Z,78799.34
2023-01-29T19:25:06.407Z,78791.63
2023-01-29T19:27:33.247Z,78783.91
2023-01-29T19:29:59.999Z,78782.00
2023-01-29T19:32:29.005Z,78780.06
2023-01-29T19:34:55.689Z,78787.78
2023-01-29T19:37:22.344Z,78787.78
2023-01-29T19:39:48.951Z,78791.63
2023-01-29T19:42:16.021Z,78799.34
2023-01-29T19:44:42.864Z,78807.06
2023-01-29T19:47:09.557Z,78814.78
2023-01-29T19:49:36.366Z,78824.41
2023-01-29T19:52:03.252Z,78845.63
2023-01-29T19:54:30.441Z,78857.19
2023-01-29T19:56:57.080Z,78849.47
2023-01-29T19:59:23.894Z,78841.78
2023-01-29T20:01:50.693Z,78855.25
2023-01-29T20:04:17.413Z,78857.19
2023-01-29T20:06:44.575Z,78861.06
2023-01-29T20:09:11.293Z,78859.13
2023-01-29T20:11:37.887Z,78857.19
2023-01-29T20:14:04.545Z,78864.91
2023-01-29T20:16:31.189Z,78861.06
2023-01-29T20:19:13.667Z,78859.13
2023-01-29T20:21:45.947Z,78864.91
2023-01-29T20:24:13.238Z,78874.53
2023-01-29T20:26:40.354Z,78880.34
2023-01-29T20:29:06.932Z,78889.97
2023-01-29T20:31:33.866Z,78891.91
2023-01-29T20:34:00.556Z,78893.84
2023-01-29T20:36:27.132Z,78868.75
2023-01-29T20:38:53.684Z,78864.91
2023-01-29T20:41:21.206Z,78855.25
2023-01-29T20:43:50.215Z,78837.91
2023-01-29T20:46:17.102Z,78837.91
2023-01-29T20:48:43.855Z,78845.63
2023-01-29T20:51:16.766Z,78849.47
2023-01-29T20:53:45.493Z,78857.19
2023-01-29T20:56:14.585Z,78853.34
2023-01-29T20:58:41.467Z,78853.34
2023-01-29T21:01:13.645Z,78847.56
2023-01-29T21:03:40.505Z,78861.06
2023-01-29T21:06:09.459Z,78868.75
2023-01-29T21:08:37.390Z,78857.19
2023-01-29T21:11:05.933Z,78861.06
2023-01-29T21:13:32.716Z,78857.19
2023-01-29T21:15:59.798Z,78859.13
2023-01-29T21:18:26.458Z,78880.34
2023-01-29T21:20:53.811Z,78878.41
2023-01-29T21:23:21.114Z,78891.91
2023-01-29T21:25:48.170Z,78907.31
2023-01-29T21:28:15.658Z,78926.63
2023-01-29T21:30:42.336Z,78928.53
2023-01-29T21:33:09.057Z,78942.03
2023-01-29T21:35:37.728Z,78936.25
2023-01-29T21:38:04.567Z,78943.97
2023-01-29T21:40:31.241Z,78934.31
2023-01-29T21:43:12.976Z,78936.25
2023-01-29T21:45:40.533Z,78926.63
2023-01-29T21:48:08.120Z,78922.75
2023-01-29T21:50:34.788Z,78934.31
2023-01-29T21:53:01.469Z,78932.41
2023-01-29T21:55:28.146Z,78911.19
2023-01-29T21:57:55.629Z,78903.47
2023-01-29T22:00:22.519Z,78899.63
2023-01-29T22:02:50.188Z,78911.19
2023-01-29T22:05:19.709Z,78907.31
2023-01-29T22:07:47.883Z,78922.75
2023-01-29T22:10:15.604Z,78907.31
2023-01-29T22:12:43.026Z,78901.53
2023-01-29T22:15:10.255Z,78907.31
2023-01-29T22:17:38.540Z,78880.34
2023-01-29T22:20:06.424Z,78884.19
2023-01-29T22:22:32.971Z,78876.47
2023-01-29T22:24:59.585Z,78884.19
2023-01-29T22:27:26.145Z,78884.19
2023-01-29T22:29:52.702Z,78891.91
2023-01-29T22:32:19.293Z,78907.31
2023-01-29T22:34:45.874Z,78922.75
2023-01-29T22:37:12.450Z,78930.47
2023-01-29T22:39:39.062Z,78926.63
2023-01-29T22:42:05.648Z,78926.63
2023-01-29T22:44:32.246Z,78897.69
2023-01-29T22:46:58.873Z,78888.03
2023-01-29T22:49:26.359Z,78895.75
2023-01-29T22:52:09.990Z,78918.91
2023-01-29T22:54:41.259Z,78926.63
2023-01-29T22:57:10.646Z,78934.31
2023-01-29T22:59:37.548Z,78934.31
2023-01-29T23:02:04.506Z,78942.03
2023-01-29T23:04:31.222Z,78943.97
2023-01-29T23:06:57.854Z,78953.59
2023-01-29T23:09:24.536Z,78953.59
2023-01-29T23:11:51.185Z,78957.47
2023-01-29T23:14:17.872Z,78957.47
2023-01-29T23:16:44.447Z,78961.31
2023-01-29T23:19:12.168Z,78972.91
2023-01-29T23:21:39.775Z,78972.91
2023-01-29T23:24:07.789Z,78972.91
2023-01-29T23:26:53.345Z,78969.03
2023-01-29T23:29:20.038Z,78984.47
2023-01-29T23:31:46.653Z,78990.25
2023-01-29T23:34:14.018Z,78984.47
2023-01-29T23:36:41.026Z,78988.31
2023-01-29T23:39:07.780Z,78988.31
2023-01-29T23:41:34.526Z,78976.75
2023-01-29T23:44:01.214Z,78976.75
2023-01-29T23:46:27.920Z,78969.03
2023-01-29T23:48:54.610Z,78972.91
2023-01-29T23:51:21.171Z,78982.53
2023-01-29T23:53:47.722Z,78984.47
2023-01-29T23:56:14.285Z,78996.03
2023-01-29T23:58:40.930Z,79003.75
